OOCL Kaohsiung — 9V9830 — position and weather

sailwx.info

Track history (hours):
 
Tides and Currents Weather Stations Pressure Air Temp Water Temp Dewpoint Dewpoint Depression Visibility Wind Speed Wind Dir Waves Ship Positions

OOCL Kaohsiung

Last reported at 2015-Jan-29 09:31 UTC. Time now 2015-Jan-31 08:41 UTC.
Position N 36°24' E 014°35'.

Length 280 m; draft 12.1 m.

Type: Cargo ship. MMSI: 566389000.

Date/timePositionNaut miles runAvg speedWind from/ knotsBaromVisibWave heightAir tempDewpointWater temp
2015-Jan-29 09:31N 36°24' E 014°35'1819.2
2015-Jan-29 08:33N 36°33' E 014°15'1919.4
2015-Jan-29 07:33N 36°43' E 013°54'2019.5
2015-Jan-29 06:33N 36°53' E 013°33'7618.9
2015-Jan-29 02:33N 37°32' E 012°12'1918.3
2015-Jan-29 01:32N 37°43' E 011°52'1817.8
2015-Jan-29 00:30N 37°55' E 011°34'11518.5
2015-Jan-28 18:15N 38°54' E 009°29'1318.5
2015-Jan-28 17:34N 39°01' E 009°15'1312.8
2015-Jan-28 16:33N 39°12' E 009°05'1 0.9
2015-Jan-28 15:34N 39°13' E 009°05'0 0.0
2015-Jan-28 14:33N 39°13' E 009°05'0 0.0
2015-Jan-28 13:32N 39°13' E 009°05'0 0.0
2015-Jan-28 12:32N 39°13' E 009°05'0 0.0
2015-Jan-28 11:32N 39°13' E 009°05'0 0.0
2015-Jan-28 10:29N 39°13' E 009°05'0 0.0
2015-Jan-28 09:32N 39°13' E 009°05'0 0.0
2015-Jan-28 08:32N 39°13' E 009°05'0 0.0
2015-Jan-28 07:32N 39°13' E 009°05'0 0.0
2015-Jan-28 06:32N 39°13' E 009°05'0 0.0
2015-Jan-28 05:33N 39°13' E 009°05'4 3.8
2015-Jan-28 04:33N 39°09' E 009°06'5 5.4
2015-Jan-28 03:33N 39°04' E 009°08'5 5.5
2015-Jan-28 02:33N 38°59' E 009°06'1414.3
2015-Jan-28 01:33N 38°48' E 008°53'1615.9
2015-Jan-28 00:33N 38°44' E 008°33'1615.4
2015-Jan-27 23:33N 38°40' E 008°14'36314.4
2015-Jan-26 22:22N 37°01' E 000°51'7317.2
2015-Jan-26 18:08N 36°43' W 000°37'1116.9
2015-Jan-26 17:30N 36°40' W 000°50'21616.6
2015-Jan-26 04:31N 36°00' W 005°13'19117.4
2015-Jan-25 17:33N 35°56' W 009°09'3316.7
2015-Jan-25 15:33N 35°56' W 009°50'1716.9
2015-Jan-25 14:33N 35°56' W 010°11'1716.9
2015-Jan-25 13:33N 35°57' W 010°32'2718.1
2015-Jan-25 12:04N 35°58' W 011°05'1018.3
2015-Jan-25 11:31N 35°58' W 011°17'1918.1
2015-Jan-25 10:27N 35°58' W 011°41'4318.3
2015-Jan-25 08:08N 35°58' W 012°34'5418.0
2015-Jan-25 05:07N 35°59' W 013°41'47413.3
2015-Jan-23 17:19N 36°06' W 023°27'1919.7
2015-Jan-23 16:20N 36°07' W 023°51'1721.9
2015-Jan-23 15:34N 36°07' W 024°12'1818.4
2015-Jan-23 14:33N 36°07' W 024°35'1818.1
2015-Jan-23 13:33N 36°08' W 024°57'1918.5
2015-Jan-23 12:34N 36°08' W 025°20'2221.6
2015-Jan-23 11:33N 36°07' W 025°47'1818.0
2015-Jan-23 10:34N 36°07' W 026°10'  
Track history (hours):
 
Tides and Currents Weather Stations Pressure Air Temp Water Temp Dewpoint Dewpoint Depression Visibility Wind Speed Wind Dir Waves Ship Positions

OOCL Kaohsiung

Last reported at 2015-Jan-29 09:31 UTC. Time now 2015-Jan-31 08:41 UTC.
Position N 36°24' E 014°35'.

Length 280 m; draft 12.1 m.

Type: Cargo ship. MMSI: 566389000.

Date/timePositionNaut miles runAvg speedWind from/ knotsBaromVisibWave heightAir tempDewpointWater temp
2015-Jan-29 09:31N 36°24' E 014°35'1819.2
2015-Jan-29 08:33N 36°33' E 014°15'1919.4
2015-Jan-29 07:33N 36°43' E 013°54'2019.5
2015-Jan-29 06:33N 36°53' E 013°33'7618.9
2015-Jan-29 02:33N 37°32' E 012°12'1918.3
2015-Jan-29 01:32N 37°43' E 011°52'1817.8
2015-Jan-29 00:30N 37°55' E 011°34'11518.5
2015-Jan-28 18:15N 38°54' E 009°29'1318.5
2015-Jan-28 17:34N 39°01' E 009°15'1312.8
2015-Jan-28 16:33N 39°12' E 009°05'1 0.9
2015-Jan-28 15:34N 39°13' E 009°05'0 0.0
2015-Jan-28 14:33N 39°13' E 009°05'0 0.0
2015-Jan-28 13:32N 39°13' E 009°05'0 0.0
2015-Jan-28 12:32N 39°13' E 009°05'0 0.0
2015-Jan-28 11:32N 39°13' E 009°05'0 0.0
2015-Jan-28 10:29N 39°13' E 009°05'0 0.0
2015-Jan-28 09:32N 39°13' E 009°05'0 0.0
2015-Jan-28 08:32N 39°13' E 009°05'0 0.0
2015-Jan-28 07:32N 39°13' E 009°05'0 0.0
2015-Jan-28 06:32N 39°13' E 009°05'0 0.0
2015-Jan-28 05:33N 39°13' E 009°05'4 3.8
2015-Jan-28 04:33N 39°09' E 009°06'5 5.4
2015-Jan-28 03:33N 39°04' E 009°08'5 5.5
2015-Jan-28 02:33N 38°59' E 009°06'1414.3
2015-Jan-28 01:33N 38°48' E 008°53'1615.9
2015-Jan-28 00:33N 38°44' E 008°33'1615.4
2015-Jan-27 23:33N 38°40' E 008°14'36314.4
2015-Jan-26 22:22N 37°01' E 000°51'7317.2
2015-Jan-26 18:08N 36°43' W 000°37'1116.9
2015-Jan-26 17:30N 36°40' W 000°50'21616.6
2015-Jan-26 04:31N 36°00' W 005°13'19117.4
2015-Jan-25 17:33N 35°56' W 009°09'3316.7
2015-Jan-25 15:33N 35°56' W 009°50'1716.9
2015-Jan-25 14:33N 35°56' W 010°11'1716.9
2015-Jan-25 13:33N 35°57' W 010°32'2718.1
2015-Jan-25 12:04N 35°58' W 011°05'1018.3
2015-Jan-25 11:31N 35°58' W 011°17'1918.1
2015-Jan-25 10:27N 35°58' W 011°41'4318.3
2015-Jan-25 08:08N 35°58' W 012°34'5418.0
2015-Jan-25 05:07N 35°59' W 013°41'47413.3
2015-Jan-23 17:19N 36°06' W 023°27'1919.7
2015-Jan-23 16:20N 36°07' W 023°51'1721.9
2015-Jan-23 15:34N 36°07' W 024°12'1818.4
2015-Jan-23 14:33N 36°07' W 024°35'1818.1
2015-Jan-23 13:33N 36°08' W 024°57'1918.5
2015-Jan-23 12:34N 36°08' W 025°20'2221.6
2015-Jan-23 11:33N 36°07' W 025°47'1818.0
2015-Jan-23 10:34N 36°07' W 026°10'  

Dump ship's entire track history